Time;durP1;ratioP1;P1;durP2;ratioP2;P2;SDS_P1;SDS_P2;PMS_P1;PMS_P2;Temp;Humidity;BMP_temperature;BMP_pressure;BME280_temperature;BME280_humidity;BME280_pressure;Samples;Min_cycle;Max_cycle;Signal;HPM_P1;HPM_P2
2022/05/26 00:01:35;;;;;;;;;;;;;;;20.14;50.27;99399.66;4480168;32;33106;-86
2022/05/26 00:04:03;;;;;;;;;;;;;;;19.62;51.36;99392.00;4471892;32;34314;-84
2022/05/26 00:06:31;;;;;;;;;;;;;;;19.79;51.12;99405.69;4472441;32;34450;-82
2022/05/26 00:08:59;;;;;;;;;;;;;;;20.38;49.82;99400.88;4475036;32;34889;-82
2022/05/26 00:11:28;;;;;;;;;;;;;;;20.73;48.58;99406.22;4469054;32;33365;-83
2022/05/26 00:13:56;;;;;;;;;;;;;;;20.77;47.99;99407.88;4469119;32;34013;-87
2022/05/26 00:16:23;;;;;;;;;;;;;;;20.50;48.62;99409.44;4473967;32;34408;-82
2022/05/26 00:18:51;;;;;;;;;;;;;;;20.06;50.01;99413.87;4458440;32;34285;-91
2022/05/26 00:21:18;;;;;;;;;;;;;;;20.50;48.75;99407.66;4477960;32;34127;-83
2022/05/26 00:23:46;;;;;;;;;;;;;;;20.02;49.72;99409.59;4476973;32;34256;-84
2022/05/26 00:26:14;;;;;;;;;;;;;;;19.68;50.79;99402.41;4469879;32;34390;-93
2022/05/26 00:28:41;;;;;;;;;;;;;;;19.69;50.81;99410.25;4476162;32;33928;-83
2022/05/26 00:31:08;;;;;;;;;;;;;;;20.20;49.48;99413.59;4481077;32;34130;-83
2022/05/26 00:33:36;;;;;;;;;;;;;;;20.31;49.03;99414.22;4460487;32;33959;-82
2022/05/26 00:36:04;;;;;;;;;;;;;;;19.64;50.66;99413.87;4484019;32;33952;-83
2022/05/26 00:38:35;;;;;;;;;;;;;;;18.78;52.74;99422.44;4481013;32;34483;-90
2022/05/26 00:41:07;;;;;;;;;;;;;;;19.39;51.81;99419.56;4454267;32;33268;-84
2022/05/26 00:43:34;;;;;;;;;;;;;;;20.06;49.56;99424.41;4468317;32;33721;-87
2022/05/26 00:46:06;;;;;;;;;;;;;;;20.45;48.85;99421.78;4468193;32;35182;-84
2022/05/26 00:48:43;;;;;;;;;;;;;;;19.52;50.92;99419.38;4454312;32;35093;-84
2022/05/26 00:51:11;;;;;;;;;;;;;;;19.93;49.94;99429.94;4478943;32;33464;-82
2022/05/26 00:53:46;;;;;;;;;;;;;;;20.72;47.84;99422.91;4466462;32;34246;-83
2022/05/26 00:56:13;;;;;;;;;;;;;;;20.04;49.57;99439.34;4454271;32;34500;-84
2022/05/26 00:58:41;;;;;;;;;;;;;;;19.17;51.78;99421.78;4472328;32;34122;-82
2022/05/26 01:01:09;;;;;;;;;;;;;;;19.74;49.96;99428.59;4478575;32;33132;-82
2022/05/26 01:03:39;;;;;;;;;;;;;;;19.38;51.00;99441.53;4459749;32;34672;-82
2022/05/26 01:06:06;;;;;;;;;;;;;;;19.26;51.31;99440.88;4468814;32;34888;-87
2022/05/26 01:08:38;;;;;;;;;;;;;;;19.55;50.79;99441.22;4472299;32;34833;-82
2022/05/26 01:11:06;;;;;;;;;;;;;;;20.45;47.96;99434.94;4467810;32;33203;-82
2022/05/26 01:13:34;;;;;;;;;;;;;;;20.02;49.02;99441.19;4461326;32;34967;-88
2022/05/26 01:16:05;;;;;;;;;;;;;;;20.00;49.10;99441.22;4457185;32;33835;-83
2022/05/26 01:18:42;;;;;;;;;;;;;;;20.61;47.46;99441.66;4465890;32;34158;-83
2022/05/26 01:21:14;;;;;;;;;;;;;;;19.12;50.82;99444.63;4481431;32;33456;-82
2022/05/26 01:24:01;;;;;;;;;;;;;;;19.38;50.36;99443.28;4464692;32;34396;-84
2022/05/26 01:26:31;;;;;;;;;;;;;;;19.39;50.28;99435.34;4476044;31;34209;-84
2022/05/26 01:29:08;;;;;;;;;;;;;;;19.48;49.97;99441.38;4482192;32;35016;-83
2022/05/26 01:32:01;;;;;;;;;;;;;;;19.90;48.51;99445.78;4476954;32;34304;-82
2022/05/26 01:34:51;;;;;;;;;;;;;;;19.81;49.04;99440.75;4453158;32;35117;-84
2022/05/26 01:37:28;;;;;;;;;;;;;;;20.79;46.37;99437.69;4466483;32;34030;-83
2022/05/26 01:40:14;;;;;;;;;;;;;;;20.51;47.21;99434.84;4471001;32;34566;-93
2022/05/26 01:42:45;;;;;;;;;;;;;;;20.67;46.46;99438.84;4468325;32;34326;-83
2022/05/26 01:45:12;;;;;;;;;;;;;;;21.13;45.39;99435.91;4477334;32;34405;-83
2022/05/26 01:47:43;;;;;;;;;;;;;;;20.69;46.63;99449.38;4468985;32;33819;-84
2022/05/26 01:50:13;;;;;;;;;;;;;;;19.36;49.33;99448.59;4470896;32;34965;-91
2022/05/26 01:52:44;;;;;;;;;;;;;;;20.18;47.60;99451.31;4468963;32;34077;-82
2022/05/26 01:55:14;;;;;;;;;;;;;;;19.88;48.26;99452.84;4467928;32;34140;-84
2022/05/26 01:57:55;;;;;;;;;;;;;;;19.64;48.84;99455.97;4455186;32;35367;-82
2022/05/26 02:00:22;;;;;;;;;;;;;;;19.30;49.52;99450.44;4465894;32;34149;-83
2022/05/26 02:02:55;;;;;;;;;;;;;;;19.24;50.19;99461.94;4465204;32;33879;-84
2022/05/26 02:05:26;;;;;;;;;;;;;;;18.94;50.81;99466.84;4461053;32;33886;-84
2022/05/26 02:07:58;;;;;;;;;;;;;;;19.53;49.45;99460.53;4453234;32;34323;-85
2022/05/26 02:10:28;;;;;;;;;;;;;;;19.20;50.36;99473.38;4465342;32;34893;-91
2022/05/26 02:12:57;;;;;;;;;;;;;;;19.12;50.60;99473.53;4466504;32;34082;-92
2022/05/26 02:15:30;;;;;;;;;;;;;;;19.56;49.74;99471.00;4466912;32;33638;-83
2022/05/26 02:18:05;;;;;;;;;;;;;;;19.28;50.17;99476.78;4462862;32;34366;-84
2022/05/26 02:20:38;;;;;;;;;;;;;;;17.94;53.51;99479.59;4451718;32;34511;-83
2022/05/26 02:23:08;;;;;;;;;;;;;;;18.74;52.16;99489.91;4452122;32;33682;-84
2022/05/26 02:25:35;;;;;;;;;;;;;;;18.86;51.32;99483.59;4460313;32;34161;-83
2022/05/26 02:28:02;;;;;;;;;;;;;;;17.42;55.40;99491.47;4455315;32;35361;-90
2022/05/26 02:30:31;;;;;;;;;;;;;;;18.76;51.98;99498.66;4467518;32;34310;-82
2022/05/26 02:32:59;;;;;;;;;;;;;;;18.94;50.87;99490.47;4466322;32;32866;-83
2022/05/26 02:35:26;;;;;;;;;;;;;;;19.07;51.12;99492.91;4454459;32;34411;-83
2022/05/26 02:37:58;;;;;;;;;;;;;;;19.34;50.07;99494.19;4464553;32;34544;-84
2022/05/26 02:40:26;;;;;;;;;;;;;;;19.36;49.88;99500.31;4450836;32;33901;-89
2022/05/26 02:43:00;;;;;;;;;;;;;;;18.52;52.45;99494.56;4452022;32;33396;-83
2022/05/26 02:45:46;;;;;;;;;;;;;;;18.82;51.37;99502.94;4461403;32;34108;-83
2022/05/26 02:48:17;;;;;;;;;;;;;;;18.08;53.41;99508.31;4451726;32;35308;-84
2022/05/26 02:50:48;;;;;;;;;;;;;;;18.61;52.32;99507.59;4464575;32;35044;-83
2022/05/26 02:53:19;;;;;;;;;;;;;;;18.78;51.95;99511.75;4455784;32;34331;-85
2022/05/26 02:56:04;;;;;;;;;;;;;;;18.20;53.49;99508.13;4463611;32;33429;-83
2022/05/26 02:58:34;;;;;;;;;;;;;;;18.74;51.90;99502.19;4455848;32;34455;-83
2022/05/26 03:01:02;;;;;;;;;;;;;;;18.63;52.40;99499.66;4472190;32;33830;-84
2022/05/26 03:03:34;;;;;;;;;;;;;;;17.41;55.91;99515.97;4474584;32;33593;-83
2022/05/26 03:06:07;;;;;;;;;;;;;;;18.11;53.96;99506.50;4468041;32;33282;-85
2022/05/26 03:08:36;;;;;;;;;;;;;;;18.48;52.89;99509.50;4464641;32;35007;-83
2022/05/26 03:11:09;;;;;;;;;;;;;;;17.45;55.73;99529.91;4452980;32;34106;-83
2022/05/26 03:13:36;;;;;;;;;;;;;;;17.73;55.12;99526.16;4453651;32;33659;-83
2022/05/26 03:16:04;;;;;;;;;;;;;;;18.52;52.72;99515.56;4463937;32;34665;-92
2022/05/26 03:18:31;;;;;;;;;;;;;;;18.50;52.64;99521.75;4464455;32;34561;-83
2022/05/26 03:20:59;;;;;;;;;;;;;;;18.68;51.70;99522.38;4483238;32;34285;-83
2022/05/26 03:23:27;;;;;;;;;;;;;;;19.22;49.80;99524.19;4470105;32;34447;-89
2022/05/26 03:25:58;;;;;;;;;;;;;;;18.79;50.91;99529.22;4476838;32;34156;-90
2022/05/26 03:28:26;;;;;;;;;;;;;;;18.82;51.03;99532.69;4463427;32;34484;-89
2022/05/26 03:30:53;;;;;;;;;;;;;;;18.86;50.94;99539.62;4455418;32;33975;-83
2022/05/26 03:33:21;;;;;;;;;;;;;;;18.42;52.06;99535.00;4480627;32;34329;-82
2022/05/26 03:41:33;;;;;;;;;;;;;;;19.49;49.22;99541.25;4466056;32;34852;-82
2022/05/26 03:44:00;;;;;;;;;;;;;;;19.66;48.91;99539.22;4482313;32;33056;-82
2022/05/26 03:46:28;;;;;;;;;;;;;;;19.16;50.58;99551.41;4479294;32;34755;-83
2022/05/26 03:48:55;;;;;;;;;;;;;;;19.96;48.85;99547.41;4468614;32;34448;-93
2022/05/26 03:51:23;;;;;;;;;;;;;;;19.11;50.55;99552.41;4476999;32;34958;-86
2022/05/26 03:53:50;;;;;;;;;;;;;;;19.30;49.97;99551.22;4484028;32;33374;-83
2022/05/26 03:56:18;;;;;;;;;;;;;;;18.85;51.78;99556.28;4476336;31;34331;-85
2022/05/26 03:58:46;;;;;;;;;;;;;;;19.56;49.99;99555.16;4469194;32;34661;-84
2022/05/26 04:01:14;;;;;;;;;;;;;;;19.28;50.81;99553.00;4477560;32;35201;-83
2022/05/26 04:03:42;;;;;;;;;;;;;;;18.87;52.14;99559.78;4468670;32;33179;-83
2022/05/26 04:06:09;;;;;;;;;;;;;;;18.68;52.94;99568.78;4456544;32;35128;-92
2022/05/26 04:08:36;;;;;;;;;;;;;;;19.79;50.15;99562.69;4483873;32;35390;-83
2022/05/26 04:11:04;;;;;;;;;;;;;;;19.52;50.44;99571.88;4483848;31;34694;-83
2022/05/26 04:13:32;;;;;;;;;;;;;;;21.04;47.35;99569.75;4484142;32;33356;-83
2022/05/26 04:15:59;;;;;;;;;;;;;;;20.13;49.03;99579.56;4460008;32;34091;-84
2022/05/26 04:18:27;;;;;;;;;;;;;;;21.02;46.98;99576.81;4479353;32;35366;-83
2022/05/26 04:21:08;;;;;;;;;;;;;;;20.54;47.90;99584.91;4479409;32;34069;-82
2022/05/26 04:23:35;;;;;;;;;;;;;;;20.80;47.56;99584.38;4463249;32;34287;-83
2022/05/26 04:26:03;;;;;;;;;;;;;;;20.92;46.79;99581.44;4461427;32;34047;-90
2022/05/26 04:28:31;;;;;;;;;;;;;;;20.57;47.58;99582.19;4478889;32;35924;-84
2022/05/26 04:30:58;;;;;;;;;;;;;;;22.08;44.05;99578.53;4461988;32;34348;-90
2022/05/26 04:33:27;;;;;;;;;;;;;;;21.59;44.75;99592.16;4477591;32;32843;-83
2022/05/26 04:35:54;;;;;;;;;;;;;;;21.30;45.32;99588.44;4470879;31;33807;-87
2022/05/26 04:38:22;;;;;;;;;;;;;;;22.20;43.32;99587.94;4475758;32;35498;-82
2022/05/26 04:41:15;;;;;;;;;;;;;;;22.86;41.32;99587.78;4469221;32;34516;-84
2022/05/26 04:43:43;;;;;;;;;;;;;;;21.83;43.79;99599.47;4466418;32;34154;-83
2022/05/26 04:46:10;;;;;;;;;;;;;;;23.27;40.83;99582.06;4478864;32;35027;-82
2022/05/26 04:48:38;;;;;;;;;;;;;;;22.99;41.05;99590.00;4476195;32;34307;-83
2022/05/26 04:51:05;;;;;;;;;;;;;;;22.75;41.98;99590.75;4474860;32;34251;-82
2022/05/26 04:53:33;;;;;;;;;;;;;;;22.62;42.71;99584.97;4481747;32;34231;-90
2022/05/26 04:56:00;;;;;;;;;;;;;;;23.00;41.22;99589.13;4471412;32;34296;-84
2022/05/26 04:58:27;;;;;;;;;;;;;;;23.13;40.24;99594.00;4462826;32;34002;-83
2022/05/26 05:00:55;;;;;;;;;;;;;;;23.25;40.50;99601.53;4474424;32;33722;-82
2022/05/26 05:03:22;;;;;;;;;;;;;;;22.44;41.90;99606.63;4482678;32;32983;-84
2022/05/26 05:05:50;;;;;;;;;;;;;;;23.36;40.16;99615.28;4483876;32;34999;-83
2022/05/26 05:08:17;;;;;;;;;;;;;;;24.01;39.48;99614.03;4484146;32;34380;-83
2022/05/26 05:10:44;;;;;;;;;;;;;;;23.04;40.75;99616.34;4472570;32;34369;-83
2022/05/26 05:13:12;;;;;;;;;;;;;;;23.92;38.66;99614.34;4467877;32;33460;-85
2022/05/26 05:15:42;;;;;;;;;;;;;;;22.88;40.77;99615.00;4453880;32;34973;-84
2022/05/26 05:18:09;;;;;;;;;;;;;;;22.55;42.23;99626.56;4454063;32;35027;-84
2022/05/26 05:20:36;;;;;;;;;;;;;;;23.17;41.11;99622.94;4469131;32;34361;-83
2022/05/26 05:23:05;;;;;;;;;;;;;;;23.36;40.41;99627.66;4477750;31;34249;-82
2022/05/26 05:25:33;;;;;;;;;;;;;;;23.75;39.56;99620.22;4478981;32;33356;-84
2022/05/26 05:28:02;;;;;;;;;;;;;;;23.68;39.03;99619.56;4483494;31;34582;-83
2022/05/26 05:30:29;;;;;;;;;;;;;;;23.23;39.73;99629.84;4461011;32;33878;-83
2022/05/26 05:33:07;;;;;;;;;;;;;;;23.84;39.82;99632.28;4467958;32;34214;-85
2022/05/26 05:35:37;;;;;;;;;;;;;;;23.59;39.07;99633.06;4467558;32;33928;-84
2022/05/26 05:38:06;;;;;;;;;;;;;;;23.27;39.90;99642.94;4457451;32;34259;-86
2022/05/26 05:40:34;;;;;;;;;;;;;;;23.34;39.82;99642.75;4472150;32;34076;-84
2022/05/26 05:43:02;;;;;;;;;;;;;;;23.85;38.08;99648.13;4467678;32;33645;-84
2022/05/26 05:45:29;;;;;;;;;;;;;;;24.44;37.49;99649.63;4453711;32;33491;-83
2022/05/26 05:47:57;;;;;;;;;;;;;;;23.75;37.77;99650.22;4464922;32;35484;-83
2022/05/26 05:50:24;;;;;;;;;;;;;;;23.92;38.79;99656.72;4469550;32;35109;-84
2022/05/26 05:52:52;;;;;;;;;;;;;;;24.09;38.53;99654.34;4468040;32;32754;-83
2022/05/26 05:55:19;;;;;;;;;;;;;;;24.40;36.87;99645.38;4467826;32;35099;-84
2022/05/26 05:57:46;;;;;;;;;;;;;;;24.58;37.39;99646.47;4467888;32;34547;-85
2022/05/26 06:00:14;;;;;;;;;;;;;;;24.13;37.82;99656.00;4467271;32;33659;-86
2022/05/26 06:02:41;;;;;;;;;;;;;;;22.87;40.94;99658.22;4478963;32;32920;-86
2022/05/26 06:05:09;;;;;;;;;;;;;;;24.37;38.20;99654.25;4483502;32;33684;-89
2022/05/26 06:07:40;;;;;;;;;;;;;;;24.31;37.18;99645.66;4462301;32;35036;-87
2022/05/26 06:10:08;;;;;;;;;;;;;;;24.50;36.92;99644.09;4476604;32;34951;-89
2022/05/26 06:12:36;;;;;;;;;;;;;;;24.16;38.22;99666.47;4481859;32;32809;-86
2022/05/26 06:15:04;;;;;;;;;;;;;;;25.11;36.85;99663.03;4483377;32;34685;-87
2022/05/26 06:17:32;;;;;;;;;;;;;;;25.06;35.76;99662.31;4467679;32;34149;-89
2022/05/26 06:20:00;;;;;;;;;;;;;;;23.47;39.33;99671.38;4464538;32;33921;-88
2022/05/26 06:22:29;;;;;;;;;;;;;;;23.98;38.92;99685.62;4480325;32;34251;-89
2022/05/26 06:24:56;;;;;;;;;;;;;;;25.41;35.64;99676.00;4481034;32;34381;-92
2022/05/26 06:30:12;;;;;;;;;;;;;;;24.53;37.03;99702.31;4479025;32;33958;-90
2022/05/26 06:38:18;;;;;;;;;;;;;;;24.81;37.70;99711.91;4478145;31;34865;-85
2022/05/26 06:40:46;;;;;;;;;;;;;;;24.12;39.02;99717.81;4463568;32;34480;-86
2022/05/26 06:43:16;;;;;;;;;;;;;;;25.19;38.54;99718.44;4480694;32;33036;-86
2022/05/26 06:45:44;;;;;;;;;;;;;;;26.05;36.24;99718.56;4482354;32;34632;-86
2022/05/26 06:48:12;;;;;;;;;;;;;;;25.43;37.80;99716.66;4468977;32;33915;-86
2022/05/26 06:50:40;;;;;;;;;;;;;;;25.35;38.25;99714.28;4468633;32;35247;-83
2022/05/26 06:53:07;;;;;;;;;;;;;;;25.53;38.16;99712.69;4463582;32;34146;-85
2022/05/26 06:55:35;;;;;;;;;;;;;;;26.09;37.46;99712.19;4454444;32;35359;-86
2022/05/26 06:58:02;;;;;;;;;;;;;;;25.47;37.30;99707.62;4465238;32;34210;-85
2022/05/26 07:00:29;;;;;;;;;;;;;;;25.63;38.05;99708.75;4464563;32;33886;-84
2022/05/26 07:02:57;;;;;;;;;;;;;;;25.95;37.64;99707.47;4474188;32;33071;-86
2022/05/26 07:05:25;;;;;;;;;;;;;;;26.28;36.93;99701.63;4463171;32;34291;-85
2022/05/26 07:07:54;;;;;;;;;;;;;;;27.29;35.03;99690.94;4464445;32;34491;-84
2022/05/26 07:10:21;;;;;;;;;;;;;;;26.77;36.00;99693.31;4465181;32;35298;-85
2022/05/26 07:12:49;;;;;;;;;;;;;;;27.02;35.15;99699.25;4463898;32;34130;-85
2022/05/26 07:15:16;;;;;;;;;;;;;;;26.49;36.20;99699.88;4469446;32;34687;-86
2022/05/26 07:17:45;;;;;;;;;;;;;;;26.21;37.23;99708.12;4478136;32;34426;-85
2022/05/26 07:20:12;;;;;;;;;;;;;;;27.04;35.96;99697.38;4479908;32;34361;-85
2022/05/26 07:22:40;;;;;;;;;;;;;;;26.64;36.14;99707.19;4480140;32;33900;-85
2022/05/26 07:25:09;;;;;;;;;;;;;;;27.55;35.10;99711.84;4476674;32;34682;-86
2022/05/26 07:27:36;;;;;;;;;;;;;;;27.31;35.38;99705.03;4465624;32;34822;-84
2022/05/26 07:30:04;;;;;;;;;;;;;;;28.10;34.02;99709.13;4480865;32;33655;-85
2022/05/26 07:32:32;;;;;;;;;;;;;;;27.82;34.51;99712.31;4481081;32;32908;-84
2022/05/26 07:34:59;;;;;;;;;;;;;;;28.06;34.27;99720.88;4481233;32;33934;-84
2022/05/26 07:42:58;;;;;;;;;;;;;;;26.49;36.67;99734.44;4469014;32;34111;-84
2022/05/26 07:45:26;;;;;;;;;;;;;;;26.44;37.11;99731.06;4451069;32;34679;-84
2022/05/26 07:47:53;;;;;;;;;;;;;;;27.16;35.83;99727.91;4479054;32;33866;-87
2022/05/26 07:50:20;;;;;;;;;;;;;;;26.31;36.47;99736.06;4475667;32;33865;-84
2022/05/26 07:52:48;;;;;;;;;;;;;;;27.19;36.50;99730.41;4479650;32;33536;-83
2022/05/26 07:55:18;;;;;;;;;;;;;;;26.65;35.61;99742.59;4480201;32;34762;-83
2022/05/26 07:57:45;;;;;;;;;;;;;;;27.47;35.40;99730.00;4481334;32;34457;-85
2022/05/26 08:00:13;;;;;;;;;;;;;;;25.43;38.28;99738.75;4479091;32;34068;-83
2022/05/26 08:02:41;;;;;;;;;;;;;;;25.37;39.53;99741.63;4478989;32;33487;-85
2022/05/26 08:05:09;;;;;;;;;;;;;;;26.89;35.71;99736.19;4479940;32;34149;-84
2022/05/26 08:07:36;;;;;;;;;;;;;;;26.29;37.63;99740.59;4482615;32;34108;-87
2022/05/26 08:10:04;;;;;;;;;;;;;;;26.61;36.35;99741.87;4471946;32;34315;-85
2022/05/26 08:12:31;;;;;;;;;;;;;;;27.07;35.55;99725.63;4483698;32;33311;-85
2022/05/26 08:14:58;;;;;;;;;;;;;;;26.41;37.01;99739.19;4483632;32;33881;-85
2022/05/26 08:17:26;;;;;;;;;;;;;;;26.48;37.25;99734.50;4483042;32;34338;-84
2022/05/26 08:19:53;;;;;;;;;;;;;;;26.19;38.37;99734.78;4483729;32;34348;-84
2022/05/26 08:22:21;;;;;;;;;;;;;;;25.83;37.27;99737.16;4483142;32;33274;-85
2022/05/26 08:24:52;;;;;;;;;;;;;;;25.75;37.25;99739.25;4483073;32;34025;-86
2022/05/26 08:27:20;;;;;;;;;;;;;;;26.67;35.62;99730.97;4474376;32;34416;-85
2022/05/26 08:29:48;;;;;;;;;;;;;;;25.50;38.24;99726.09;4479001;32;34976;-82
2022/05/26 08:32:16;;;;;;;;;;;;;;;26.16;37.99;99739.38;4483722;32;34453;-83
2022/05/26 08:34:43;;;;;;;;;;;;;;;26.79;36.25;99731.38;4483705;32;34058;-83
2022/05/26 08:37:14;;;;;;;;;;;;;;;27.20;35.38;99733.94;4468361;32;34188;-83
2022/05/26 08:39:42;;;;;;;;;;;;;;;25.46;38.01;99735.13;4482739;32;34820;-83
2022/05/26 08:42:12;;;;;;;;;;;;;;;26.82;34.78;99731.19;4483163;32;32991;-84
2022/05/26 08:44:39;;;;;;;;;;;;;;;25.98;37.29;99734.81;4453421;32;34780;-82
2022/05/26 08:47:08;;;;;;;;;;;;;;;25.36;37.83;99739.03;4479864;32;35192;-83
2022/05/26 08:49:35;;;;;;;;;;;;;;;26.49;35.81;99736.25;4467877;32;34999;-84
2022/05/26 08:52:05;;;;;;;;;;;;;;;27.80;33.37;99726.66;4475905;32;33531;-84
2022/05/26 08:54:51;;;;;;;;;;;;;;;27.01;36.07;99740.09;4454169;32;35517;-83
2022/05/26 08:57:20;;;;;;;;;;;;;;;27.13;35.37;99738.72;4467893;32;35280;-84
2022/05/26 08:59:48;;;;;;;;;;;;;;;26.29;36.06;99737.94;4451134;32;35584;-84
2022/05/26 09:02:34;;;;;;;;;;;;;;;25.58;37.24;99737.28;4467389;32;33305;-84
2022/05/26 09:05:04;;;;;;;;;;;;;;;25.77;36.48;99732.09;4466832;32;34934;-84
2022/05/26 09:13:08;;;;;;;;;;;;;;;26.39;35.50;99735.72;4467043;32;33100;-84
2022/05/26 09:15:36;;;;;;;;;;;;;;;28.01;32.08;99733.59;4458003;32;34093;-85
2022/05/26 09:18:11;;;;;;;;;;;;;;;27.73;32.72;99743.84;4466901;32;33914;-84
2022/05/26 09:20:39;;;;;;;;;;;;;;;26.61;33.86;99752.53;4465479;32;33976;-85
2022/05/26 09:23:07;;;;;;;;;;;;;;;27.61;32.80;99738.16;4467936;32;33181;-85
2022/05/26 09:25:48;;;;;;;;;;;;;;;28.26;31.64;99737.69;4462020;32;34328;-86
2022/05/26 09:28:29;;;;;;;;;;;;;;;28.22;32.20;99742.28;4466014;32;35365;-87
2022/05/26 09:30:58;;;;;;;;;;;;;;;27.55;31.59;99735.81;4466415;32;33996;-84
2022/05/26 09:33:27;;;;;;;;;;;;;;;27.89;30.23;99734.22;4464650;32;34057;-85
2022/05/26 09:35:54;;;;;;;;;;;;;;;27.31;31.06;99744.97;4467507;32;34170;-86
2022/05/26 09:38:21;;;;;;;;;;;;;;;28.30;31.12;99748.13;4466092;32;34008;-85
2022/05/26 09:40:49;;;;;;;;;;;;;;;26.84;32.56;99743.50;4466524;32;34019;-85
2022/05/26 09:43:16;;;;;;;;;;;;;;;27.40;31.60;99725.91;4467306;32;34107;-87
2022/05/26 09:45:46;;;;;;;;;;;;;;;27.77;31.93;99734.78;4466003;32;34311;-85
2022/05/26 09:48:15;;;;;;;;;;;;;;;27.08;29.85;99727.37;4462734;32;34179;-83
2022/05/26 09:50:49;;;;;;;;;;;;;;;27.58;30.09;99734.81;4451316;32;34029;-85
2022/05/26 09:53:26;;;;;;;;;;;;;;;27.55;28.80;99741.16;4450797;32;33648;-85
2022/05/26 09:55:55;;;;;;;;;;;;;;;27.80;29.56;99740.84;4451301;32;34892;-86
2022/05/26 09:58:28;;;;;;;;;;;;;;;28.02;29.38;99735.31;4452011;32;35415;-85
2022/05/26 10:00:59;;;;;;;;;;;;;;;27.22;29.28;99735.59;4465014;32;34677;-85
2022/05/26 10:03:26;;;;;;;;;;;;;;;28.03;28.62;99737.03;4466497;32;33548;-85
2022/05/26 10:05:56;;;;;;;;;;;;;;;27.97;28.71;99732.03;4472374;32;34287;-86
2022/05/26 10:08:26;;;;;;;;;;;;;;;27.62;29.16;99731.06;4479793;32;35273;-85
2022/05/26 10:10:59;;;;;;;;;;;;;;;28.56;28.05;99724.59;4450685;32;33803;-83
2022/05/26 10:13:27;;;;;;;;;;;;;;;27.87;28.84;99728.94;4450703;32;34392;-85
2022/05/26 10:16:04;;;;;;;;;;;;;;;28.31;28.04;99735.66;4467923;32;35117;-83
2022/05/26 10:18:35;;;;;;;;;;;;;;;28.41;28.46;99726.25;4473555;32;33980;-84
2022/05/26 10:21:22;;;;;;;;;;;;;;;28.73;26.69;99737.91;4464728;32;34340;-84
2022/05/26 10:24:08;;;;;;;;;;;;;;;27.97;27.28;99731.16;4480196;31;33822;-85
2022/05/26 10:26:47;;;;;;;;;;;;;;;28.12;26.37;99728.59;4477297;32;35130;-84
2022/05/26 10:29:34;;;;;;;;;;;;;;;28.87;26.97;99729.19;4465916;32;34897;-85
2022/05/26 10:32:16;;;;;;;;;;;;;;;28.78;25.65;99724.31;4465700;32;34708;-83
2022/05/26 10:34:43;;;;;;;;;;;;;;;28.36;26.84;99725.59;4476871;32;33442;-84
2022/05/26 10:37:29;;;;;;;;;;;;;;;29.13;24.77;99724.25;4479006;32;35858;-84
2022/05/26 10:40:35;;;;;;;;;;;;;;;28.76;25.33;99726.22;4479364;32;34271;-83
2022/05/26 10:43:21;;;;;;;;;;;;;;;28.58;22.86;99722.72;4398188;32;35184;-82
2022/05/26 10:45:51;;;;;;;;;;;;;;;28.88;23.78;99725.56;4397339;32;33144;-84
2022/05/26 10:48:37;;;;;;;;;;;;;;;30.09;23.29;99718.81;4446855;32;33606;-83
2022/05/26 10:51:15;;;;;;;;;;;;;;;28.80;24.96;99725.97;4479195;32;34854;-83
2022/05/26 10:53:51;;;;;;;;;;;;;;;29.19;25.98;99724.78;4463130;32;34245;-84
2022/05/26 10:56:39;;;;;;;;;;;;;;;28.65;25.80;99723.28;4449930;32;32893;-84
2022/05/26 10:59:28;;;;;;;;;;;;;;;28.34;26.37;99725.69;4463741;32;33809;-81
2022/05/26 11:01:57;;;;;;;;;;;;;;;28.75;26.05;99719.16;4465335;32;34945;-83
2022/05/26 11:04:27;;;;;;;;;;;;;;;27.86;27.63;99718.37;4449507;32;33882;-84
2022/05/26 11:06:55;;;;;;;;;;;;;;;29.14;26.55;99726.87;4455442;32;33276;-86
2022/05/26 11:09:26;;;;;;;;;;;;;;;29.15;26.11;99725.91;4464799;32;34350;-85
2022/05/26 11:11:56;;;;;;;;;;;;;;;28.75;26.10;99725.38;4480150;31;35017;-86
2022/05/26 11:17:36;;;;;;;;;;;;;;;28.04;27.86;99717.47;4469043;32;33697;-86
2022/05/26 11:20:03;;;;;;;;;;;;;;;28.79;27.10;99712.69;4479501;32;34511;-84
2022/05/26 11:22:32;;;;;;;;;;;;;;;29.54;25.64;99703.25;4480436;32;34243;-84
2022/05/26 11:25:00;;;;;;;;;;;;;;;27.99;26.74;99710.63;4480707;32;33783;-85
2022/05/26 11:27:33;;;;;;;;;;;;;;;29.11;26.18;99705.66;4481219;32;33296;-86
2022/05/26 11:30:03;;;;;;;;;;;;;;;29.43;25.65;99701.19;4471377;32;33786;-84
2022/05/26 11:38:10;;;;;;;;;;;;;;;29.14;27.94;99693.97;4466094;32;33178;-85
2022/05/26 11:40:50;;;;;;;;;;;;;;;28.69;26.87;99698.16;4451799;32;34350;-85
2022/05/26 11:43:24;;;;;;;;;;;;;;;29.19;27.19;99697.22;4457755;32;33919;-85
2022/05/26 11:45:52;;;;;;;;;;;;;;;29.19;26.37;99692.75;4469428;32;33977;-84
2022/05/26 11:48:32;;;;;;;;;;;;;;;29.29;24.64;99683.28;4483982;32;33127;-84
2022/05/26 11:51:03;;;;;;;;;;;;;;;28.59;26.97;99685.28;4483412;32;33826;-84
2022/05/26 11:53:31;;;;;;;;;;;;;;;29.05;26.18;99679.28;4469002;32;34521;-84
2022/05/26 11:55:58;;;;;;;;;;;;;;;30.05;25.50;99698.56;4484306;32;33691;-85
2022/05/26 11:58:31;;;;;;;;;;;;;;;28.93;26.34;99675.47;4468932;32;33200;-84
2022/05/26 12:01:13;;;;;;;;;;;;;;;29.68;25.36;99679.31;4466767;32;34327;-84
2022/05/26 12:03:48;;;;;;;;;;;;;;;29.42;26.09;99683.44;4468075;32;34161;-84
2022/05/26 12:06:17;;;;;;;;;;;;;;;29.71;25.24;99675.59;4453874;32;33291;-83
2022/05/26 12:08:53;;;;;;;;;;;;;;;29.48;25.60;99680.44;4454494;32;33435;-84
2022/05/26 12:11:41;;;;;;;;;;;;;;;30.00;24.50;99669.41;4467809;32;34043;-85
2022/05/26 12:14:08;;;;;;;;;;;;;;;29.39;26.31;99670.25;4467369;32;34318;-85
2022/05/26 12:16:35;;;;;;;;;;;;;;;29.99;25.41;99665.00;4454065;32;34204;-85
2022/05/26 12:19:08;;;;;;;;;;;;;;;29.72;24.99;99655.94;4452981;32;34037;-83
2022/05/26 12:21:44;;;;;;;;;;;;;;;29.20;25.54;99661.56;4451511;32;34042;-83
2022/05/26 12:24:30;;;;;;;;;;;;;;;27.47;27.94;99658.09;4472714;32;34295;-84
2022/05/26 12:26:58;;;;;;;;;;;;;;;29.37;25.57;99657.94;4465149;32;34390;-84
2022/05/26 12:29:42;;;;;;;;;;;;;;;28.70;25.99;99647.34;4479258;32;33385;-83
2022/05/26 12:32:11;;;;;;;;;;;;;;;28.76;26.08;99659.53;4463202;32;34554;-86
2022/05/26 12:34:47;;;;;;;;;;;;;;;28.52;26.46;99654.53;4466511;32;34286;-82
2022/05/26 12:37:20;;;;;;;;;;;;;;;28.57;25.64;99657.84;4476433;32;34408;-82
2022/05/26 12:39:52;;;;;;;;;;;;;;;28.00;27.05;99657.25;4469874;32;33392;-87
2022/05/26 12:42:30;;;;;;;;;;;;;;;28.17;26.47;99644.84;4469709;32;33839;-81
2022/05/26 12:45:03;;;;;;;;;;;;;;;27.62;27.46;99648.50;4483793;32;33988;-82
2022/05/26 12:47:34;;;;;;;;;;;;;;;29.05;25.65;99645.44;4469447;32;35016;-81
2022/05/26 12:50:07;;;;;;;;;;;;;;;28.77;25.77;99643.41;4479346;32;33092;-81
2022/05/26 12:52:41;;;;;;;;;;;;;;;29.06;26.25;99647.19;4467609;32;33992;-80
2022/05/26 12:55:11;;;;;;;;;;;;;;;27.89;28.25;99648.94;4461116;32;34202;-81
2022/05/26 12:57:40;;;;;;;;;;;;;;;28.51;27.23;99635.97;4458755;32;787521;-80
2022/05/26 13:00:42;;;;;;;;;;;;;;;28.79;26.92;99637.97;4469040;32;34131;-81
2022/05/26 13:03:14;;;;;;;;;;;;;;;29.51;26.12;99640.19;4457968;32;35003;-81
2022/05/26 13:05:45;;;;;;;;;;;;;;;29.50;26.01;99645.59;4483955;32;34426;-80
2022/05/26 13:08:17;;;;;;;;;;;;;;;28.68;25.62;99632.38;4457498;32;33589;-80
2022/05/26 13:10:45;;;;;;;;;;;;;;;28.64;27.10;99631.69;4453966;32;33158;-81
2022/05/26 13:13:32;;;;;;;;;;;;;;;28.77;26.19;99629.22;4454101;32;33908;-80
2022/05/26 13:16:32;;;;;;;;;;;;;;;29.68;25.71;99625.00;4467820;32;35318;-81
2022/05/26 13:19:09;;;;;;;;;;;;;;;28.81;26.35;99617.44;4441342;32;34871;-82
2022/05/26 13:21:36;;;;;;;;;;;;;;;27.58;27.32;99625.63;4454002;32;34520;-81
2022/05/26 13:24:04;;;;;;;;;;;;;;;28.81;27.53;99622.75;4454043;32;33717;-83
2022/05/26 13:26:32;;;;;;;;;;;;;;;29.51;25.25;99629.50;4469861;32;33962;-82
2022/05/26 13:29:00;;;;;;;;;;;;;;;29.64;24.50;99629.66;4483481;32;33763;-81
2022/05/26 13:34:14;;;;;;;;;;;;;;;27.93;26.72;99623.84;4468264;32;32627;-81
2022/05/26 13:36:42;;;;;;;;;;;;;;;29.11;26.11;99606.03;4467943;32;34489;-81
2022/05/26 13:39:11;;;;;;;;;;;;;;;29.46;25.60;99612.00;4453497;32;33863;-81
2022/05/26 13:41:40;;;;;;;;;;;;;;;28.87;26.20;99601.09;4467942;32;34332;-82
2022/05/26 13:44:09;;;;;;;;;;;;;;;30.10;25.48;99607.34;4453444;32;34168;-83